Time;durP1;ratioP1;P1;durP2;ratioP2;P2;SDS_P1;SDS_P2;PMS_P1;PMS_P2;Temp;Humidity;BMP_temperature;BMP_pressure;BME280_temperature;BME280_humidity;BME280_pressure;Samples;Min_cycle;Max_cycle;Signal;HPM_P1;HPM_P2
2023/09/05 00:03:07;;;;;;;3.88;2.53;;;;;;;;;;10411760;28;20021;-50
2023/09/05 00:08:07;;;;;;;4.20;2.38;;;;;;;;;;10379620;28;20038;-49
2023/09/05 00:13:11;;;;;;;4.18;2.67;;;;;;;;;;10405518;28;20056;-51
2023/09/05 00:18:11;;;;;;;4.35;2.55;;;;;;;;;;10408615;28;20405;-51
2023/09/05 00:23:12;;;;;;;8.82;2.58;;;;;;;;;;10409103;28;20119;-51
2023/09/05 00:28:13;;;;;;;4.30;2.70;;;;;;;;;;10405936;28;20029;-53
2023/09/05 00:33:14;;;;;;;7.00;2.80;;;;;;;;;;10401579;28;20039;-52
2023/09/05 00:38:17;;;;;;;5.30;3.17;;;;;;;;;;10402463;28;20029;-50
2023/09/05 00:43:20;;;;;;;6.93;2.78;;;;;;;;;;10409457;28;20061;-57
2023/09/05 00:48:27;;;;;;;2.58;2.20;;;;;;;;;;10406748;28;20049;-57
2023/09/05 00:53:28;;;;;;;7.73;2.60;;;;;;;;;;10404991;28;20076;-51
2023/09/05 00:58:28;;;;;;;6.22;2.97;;;;;;;;;;10406431;28;20462;-54
2023/09/05 01:03:29;;;;;;;14.13;2.38;;;;;;;;;;10409247;28;20025;-54
2023/09/05 01:08:37;;;;;;;4.40;2.08;;;;;;;;;;10400606;28;20033;-53
2023/09/05 01:13:38;;;;;;;10.93;2.58;;;;;;;;;;10404066;28;20033;-58
2023/09/05 01:18:40;;;;;;;4.93;2.55;;;;;;;;;;10406459;28;20033;-54
2023/09/05 01:24:01;;;;;;;3.33;2.38;;;;;;;;;;10408358;28;20029;-54
2023/09/05 01:29:02;;;;;;;5.72;2.50;;;;;;;;;;10404462;28;20272;-53
2023/09/05 01:34:02;;;;;;;4.63;2.10;;;;;;;;;;10396509;28;20032;-55
2023/09/05 01:39:03;;;;;;;5.10;2.50;;;;;;;;;;10406791;28;20029;-50
2023/09/05 01:44:04;;;;;;;2.53;2.20;;;;;;;;;;10403854;28;20495;-50
2023/09/05 01:49:05;;;;;;;2.50;2.20;;;;;;;;;;10395420;28;20044;-49
2023/09/05 01:54:06;;;;;;;8.82;2.60;;;;;;;;;;10399672;28;20060;-48
2023/09/05 01:59:06;;;;;;;4.68;2.38;;;;;;;;;;10405488;28;20036;-49
2023/09/05 02:04:07;;;;;;;10.30;2.60;;;;;;;;;;10406676;28;20036;-55
2023/09/05 02:09:08;;;;;;;4.28;2.10;;;;;;;;;;10393587;28;20037;-56
2023/09/05 02:14:08;;;;;;;6.32;2.20;;;;;;;;;;10400619;28;20469;-58
2023/09/05 02:19:10;;;;;;;3.58;2.08;;;;;;;;;;10405191;28;20017;-57
2023/09/05 02:24:11;;;;;;;3.20;2.30;;;;;;;;;;10405639;28;20025;-53
2023/09/05 02:29:11;;;;;;;5.95;2.40;;;;;;;;;;10402643;28;20500;-56
2023/09/05 02:34:12;;;;;;;6.40;2.30;;;;;;;;;;10405482;28;20030;-56
2023/09/05 02:39:12;;;;;;;4.38;2.20;;;;;;;;;;10404765;28;20037;-56
2023/09/05 02:44:13;;;;;;;2.78;2.13;;;;;;;;;;10404353;28;20033;-56
2023/09/05 02:49:14;;;;;;;3.65;2.10;;;;;;;;;;10401156;28;20041;-57
2023/09/05 02:54:14;;;;;;;7.97;2.00;;;;;;;;;;10397679;28;20111;-56
2023/09/05 02:59:15;;;;;;;3.80;2.38;;;;;;;;;;10404962;28;20034;-52
2023/09/05 03:04:15;;;;;;;4.50;2.28;;;;;;;;;;10404229;28;20048;-53
2023/09/05 03:09:16;;;;;;;3.55;2.50;;;;;;;;;;10402075;28;20037;-51
2023/09/05 03:14:16;;;;;;;3.83;2.30;;;;;;;;;;10395269;28;20045;-53
2023/09/05 03:19:19;;;;;;;4.75;2.22;;;;;;;;;;10409538;28;20034;-54
2023/09/05 03:24:21;;;;;;;3.53;2.13;;;;;;;;;;10404128;28;20393;-54
2023/09/05 03:29:21;;;;;;;4.38;2.42;;;;;;;;;;10405281;28;20037;-56
2023/09/05 03:34:22;;;;;;;2.97;2.05;;;;;;;;;;10402185;28;20029;-51
2023/09/05 03:39:23;;;;;;;3.45;2.15;;;;;;;;;;10402288;28;20037;-57
2023/09/05 03:44:23;;;;;;;4.57;2.00;;;;;;;;;;10409892;28;20381;-56
2023/09/05 03:49:24;;;;;;;2.90;2.25;;;;;;;;;;10407298;28;20638;-56
2023/09/05 03:54:25;;;;;;;4.50;2.00;;;;;;;;;;10411666;28;20064;-55
2023/09/05 03:59:26;;;;;;;2.72;1.80;;;;;;;;;;10409501;28;20100;-51
2023/09/05 04:04:26;;;;;;;3.67;2.25;;;;;;;;;;10408260;28;20079;-55
2023/09/05 04:09:27;;;;;;;4.07;2.03;;;;;;;;;;10409638;28;20034;-52
2023/09/05 04:14:27;;;;;;;4.13;2.00;;;;;;;;;;10409819;28;20075;-54
2023/09/05 04:19:28;;;;;;;5.70;2.38;;;;;;;;;;10408177;28;20026;-55
2023/09/05 04:24:28;;;;;;;3.25;1.85;;;;;;;;;;10408984;28;20079;-55
2023/09/05 04:29:29;;;;;;;3.15;2.10;;;;;;;;;;10404005;28;20104;-49
2023/09/05 04:34:31;;;;;;;3.38;2.10;;;;;;;;;;10408646;28;20028;-51
2023/09/05 04:39:34;;;;;;;3.45;2.20;;;;;;;;;;10405683;28;20029;-53
2023/09/05 04:44:34;;;;;;;8.02;2.35;;;;;;;;;;10407858;28;20050;-58
2023/09/05 04:49:35;;;;;;;3.53;2.20;;;;;;;;;;10408301;28;20033;-58
2023/09/05 04:54:36;;;;;;;4.15;2.10;;;;;;;;;;10405605;28;20029;-58
2023/09/05 04:59:37;;;;;;;3.47;1.80;;;;;;;;;;10408343;28;20029;-58
2023/09/05 05:04:38;;;;;;;3.60;1.73;;;;;;;;;;10393789;28;20465;-53
2023/09/05 05:09:42;;;;;;;6.22;2.10;;;;;;;;;;10404839;28;20037;-59
2023/09/05 05:14:43;;;;;;;3.00;2.03;;;;;;;;;;10396184;28;20436;-57
2023/09/05 05:19:43;;;;;;;2.83;2.13;;;;;;;;;;10398214;28;20021;-58
2023/09/05 05:24:44;;;;;;;3.92;2.00;;;;;;;;;;10392267;28;20026;-56
2023/09/05 05:29:44;;;;;;;3.63;2.20;;;;;;;;;;10406214;28;20078;-50
2023/09/05 05:34:48;;;;;;;9.73;2.17;;;;;;;;;;10389487;28;20480;-60
2023/09/05 05:39:49;;;;;;;8.07;2.20;;;;;;;;;;10400005;28;20037;-66
2023/09/05 05:44:50;;;;;;;6.68;2.20;;;;;;;;;;10399982;28;20050;-65
2023/09/05 05:49:50;;;;;;;4.35;2.28;;;;;;;;;;10395501;28;20060;-66
2023/09/05 05:54:51;;;;;;;9.35;2.42;;;;;;;;;;10387988;28;20409;-64
2023/09/05 05:59:51;;;;;;;3.33;2.22;;;;;;;;;;10399958;28;20032;-63
2023/09/05 06:04:52;;;;;;;12.80;2.85;;;;;;;;;;10404442;28;20029;-55
2023/09/05 06:09:52;;;;;;;7.80;2.42;;;;;;;;;;10391136;28;20029;-50
2023/09/05 06:14:53;;;;;;;5.70;2.05;;;;;;;;;;10402892;28;20026;-50
2023/09/05 06:19:53;;;;;;;5.75;2.38;;;;;;;;;;10396373;28;20045;-54
2023/09/05 06:24:54;;;;;;;9.88;2.58;;;;;;;;;;10402802;28;20022;-48
2023/09/05 06:29:55;;;;;;;5.57;2.58;;;;;;;;;;10405837;28;20159;-48
2023/09/05 06:34:55;;;;;;;8.40;2.30;;;;;;;;;;10404366;28;20022;-47
2023/09/05 06:39:56;;;;;;;8.43;2.40;;;;;;;;;;10394458;28;20037;-48
2023/09/05 06:44:57;;;;;;;3.03;1.95;;;;;;;;;;10419725;28;20127;-48
2023/09/05 06:49:59;;;;;;;4.63;2.40;;;;;;;;;;10403775;28;20429;-48
2023/09/05 06:54:59;;;;;;;9.75;2.30;;;;;;;;;;10403509;28;20029;-48
2023/09/05 07:00:00;;;;;;;5.00;2.47;;;;;;;;;;10404918;28;20025;-53
2023/09/05 07:05:01;;;;;;;3.83;2.20;;;;;;;;;;10407527;28;20029;-59
2023/09/05 07:10:02;;;;;;;8.15;2.42;;;;;;;;;;10412111;28;20113;-48
2023/09/05 07:15:03;;;;;;;5.53;2.40;;;;;;;;;;10411221;28;20018;-47
2023/09/05 07:20:04;;;;;;;4.30;1.88;;;;;;;;;;10412143;28;20112;-47
2023/09/05 07:25:06;;;;;;;6.57;2.33;;;;;;;;;;10411825;28;20025;-48
2023/09/05 07:30:07;;;;;;;5.40;2.45;;;;;;;;;;10411297;28;20071;-49
2023/09/05 07:35:08;;;;;;;5.35;2.35;;;;;;;;;;10424737;28;20469;-48
2023/09/05 07:40:11;;;;;;;9.73;2.65;;;;;;;;;;10411533;28;20033;-48
2023/09/05 07:45:12;;;;;;;8.32;2.65;;;;;;;;;;10410487;28;20520;-50
2023/09/05 07:50:13;;;;;;;8.45;2.40;;;;;;;;;;10409777;28;20052;-48
2023/09/05 07:55:14;;;;;;;3.50;2.33;;;;;;;;;;10410580;28;20030;-48
2023/09/05 08:00:15;;;;;;;8.13;2.78;;;;;;;;;;10410222;28;20018;-48
2023/09/05 08:05:16;;;;;;;3.03;2.30;;;;;;;;;;10398340;28;20025;-48
2023/09/05 08:10:16;;;;;;;5.75;2.72;;;;;;;;;;10409961;28;20087;-47
2023/09/05 08:15:17;;;;;;;4.03;2.08;;;;;;;;;;10409447;28;20389;-60
2023/09/05 08:20:18;;;;;;;7.75;2.22;;;;;;;;;;10409238;28;20161;-61
2023/09/05 08:25:23;;;;;;;3.33;2.20;;;;;;;;;;10408780;28;20021;-60
2023/09/05 08:30:25;;;;;;;3.03;2.30;;;;;;;;;;10410240;28;20037;-60
2023/09/05 08:35:25;;;;;;;3.58;2.20;;;;;;;;;;10416343;28;20112;-62
2023/09/05 08:40:26;;;;;;;7.40;2.20;;;;;;;;;;10418294;28;20368;-57
2023/09/05 08:45:29;;;;;;;3.00;2.60;;;;;;;;;;10418183;28;20041;-60
2023/09/05 08:50:34;;;;;;;5.95;2.35;;;;;;;;;;10406157;28;20510;-61
2023/09/05 08:55:34;;;;;;;5.88;2.78;;;;;;;;;;10424483;28;20025;-54
2023/09/05 09:00:35;;;;;;;5.25;2.75;;;;;;;;;;10398291;28;20033;-53
2023/09/05 09:05:37;;;;;;;5.65;2.10;;;;;;;;;;10404232;28;20033;-55
2023/09/05 09:10:37;;;;;;;6.07;2.70;;;;;;;;;;10408434;28;20378;-48
2023/09/05 09:15:43;;;;;;;6.60;2.50;;;;;;;;;;10408330;28;20025;-61
2023/09/05 09:20:45;;;;;;;4.45;2.08;;;;;;;;;;10407811;28;20037;-48
2023/09/05 09:25:47;;;;;;;2.97;2.17;;;;;;;;;;10405554;28;20045;-48
2023/09/05 09:30:58;;;;;;;3.03;2.00;;;;;;;;;;10407482;28;20032;-50
2023/09/05 09:36:10;;;;;;;2.78;2.08;;;;;;;;;;10407801;28;20147;-48
2023/09/05 09:41:12;;;;;;;3.70;2.25;;;;;;;;;;10402650;28;20053;-48
2023/09/05 09:46:13;;;;;;;3.55;2.30;;;;;;;;;;10405862;28;20091;-48
2023/09/05 09:51:14;;;;;;;4.75;2.13;;;;;;;;;;10405951;28;20033;-48
2023/09/05 09:56:19;;;;;;;4.18;2.58;;;;;;;;;;10404994;28;20396;-48
2023/09/05 10:01:20;;;;;;;4.30;2.55;;;;;;;;;;10402959;28;20041;-48
2023/09/05 10:06:22;;;;;;;3.28;2.65;;;;;;;;;;10404151;28;20056;-49
2023/09/05 10:11:23;;;;;;;3.25;2.28;;;;;;;;;;10404009;28;20400;-48
2023/09/05 10:16:25;;;;;;;4.93;2.40;;;;;;;;;;10404178;28;20037;-50
2023/09/05 10:21:27;;;;;;;3.42;2.50;;;;;;;;;;10405678;28;20042;-48
2023/09/05 10:26:29;;;;;;;3.67;2.83;;;;;;;;;;10405973;28;20051;-48
2023/09/05 10:31:30;;;;;;;4.07;2.75;;;;;;;;;;10411983;28;20185;-48
2023/09/05 10:36:50;;;;;;;2.88;2.40;;;;;;;;;;10411480;28;20116;-49
2023/09/05 10:41:53;;;;;;;8.48;2.45;;;;;;;;;;10418989;28;20025;-48
2023/09/05 10:46:54;;;;;;;3.95;2.40;;;;;;;;;;10414343;28;20065;-49
2023/09/05 10:52:20;;;;;;;2.67;2.28;;;;;;;;;;10414109;28;20025;-48
2023/09/05 10:57:42;;;;;;;3.88;2.50;;;;;;;;;;10439888;28;20083;-48
2023/09/05 11:02:45;;;;;;;3.63;2.67;;;;;;;;;;10413220;28;20028;-49
2023/09/05 11:07:48;;;;;;;4.78;2.40;;;;;;;;;;10419534;28;20461;-48
2023/09/05 11:12:48;;;;;;;5.15;2.55;;;;;;;;;;10408393;28;20025;-49
2023/09/05 11:18:19;;;;;;;3.00;2.33;;;;;;;;;;10413264;28;20029;-48
2023/09/05 11:23:25;;;;;;;2.63;2.25;;;;;;;;;;10406546;28;20044;-47
2023/09/05 11:28:25;;;;;;;4.10;2.58;;;;;;;;;;10420260;28;20037;-50
2023/09/05 11:33:27;;;;;;;3.45;2.40;;;;;;;;;;10406933;28;20105;-48
2023/09/05 11:38:29;;;;;;;4.57;2.33;;;;;;;;;;10405726;28;20504;-48
2023/09/05 11:43:33;;;;;;;2.80;2.50;;;;;;;;;;10412619;28;20064;-48
2023/09/05 11:48:34;;;;;;;3.28;2.40;;;;;;;;;;10411938;28;20120;-48
2023/09/05 11:53:36;;;;;;;4.97;2.42;;;;;;;;;;10404059;28;20047;-55
2023/09/05 11:58:37;;;;;;;6.45;2.60;;;;;;;;;;10398360;28;20029;-48
2023/09/05 12:03:38;;;;;;;5.57;2.55;;;;;;;;;;10400908;28;20053;-49
2023/09/05 12:08:39;;;;;;;6.25;2.40;;;;;;;;;;10410556;28;20424;-47
2023/09/05 12:13:44;;;;;;;4.85;2.72;;;;;;;;;;10408305;28;20037;-48
2023/09/05 12:18:44;;;;;;;4.00;2.40;;;;;;;;;;10411518;28;20057;-50
2023/09/05 12:23:45;;;;;;;5.93;2.47;;;;;;;;;;10408463;28;20037;-47
2023/09/05 12:28:54;;;;;;;7.47;2.40;;;;;;;;;;10397734;28;20099;-50
2023/09/05 12:33:58;;;;;;;3.25;2.20;;;;;;;;;;10405622;28;20271;-49
2023/09/05 12:38:58;;;;;;;3.75;2.55;;;;;;;;;;10407074;28;20036;-49
2023/09/05 12:44:00;;;;;;;4.70;2.90;;;;;;;;;;10403803;28;20065;-48
2023/09/05 12:49:01;;;;;;;5.22;2.67;;;;;;;;;;10408454;28;20396;-49
2023/09/05 12:54:03;;;;;;;5.80;2.90;;;;;;;;;;10395774;28;20030;-50
2023/09/05 12:59:05;;;;;;;2.83;2.30;;;;;;;;;;10406970;28;20082;-51
2023/09/05 13:04:06;;;;;;;4.68;2.55;;;;;;;;;;10408428;28;20061;-48
2023/09/05 13:09:06;;;;;;;8.30;2.85;;;;;;;;;;10408745;28;20037;-47
2023/09/05 13:14:07;;;;;;;6.78;2.72;;;;;;;;;;10418194;28;20094;-48
2023/09/05 13:19:08;;;;;;;6.32;2.33;;;;;;;;;;10407852;28;20040;-47
2023/09/05 13:24:08;;;;;;;8.80;2.63;;;;;;;;;;10408556;28;20415;-48
2023/09/05 13:29:09;;;;;;;5.68;2.50;;;;;;;;;;10408244;28;20029;-48
2023/09/05 13:34:09;;;;;;;3.65;3.08;;;;;;;;;;10408372;28;20025;-48
2023/09/05 13:39:10;;;;;;;7.68;2.42;;;;;;;;;;10407750;28;20025;-48
2023/09/05 13:44:11;;;;;;;3.45;2.17;;;;;;;;;;10405894;28;20034;-48
2023/09/05 13:49:12;;;;;;;6.03;2.67;;;;;;;;;;10406414;28;20033;-48
2023/09/05 13:54:13;;;;;;;8.55;2.90;;;;;;;;;;10406875;28;20032;-48
2023/09/05 13:59:14;;;;;;;4.13;2.47;;;;;;;;;;10405056;28;20075;-48
2023/09/05 14:04:15;;;;;;;4.15;2.75;;;;;;;;;;10403630;28;20069;-51
2023/09/05 14:09:16;;;;;;;6.90;2.53;;;;;;;;;;10404421;28;20052;-48
2023/09/05 14:14:17;;;;;;;4.35;2.80;;;;;;;;;;10396871;28;20021;-47
2023/09/05 14:19:17;;;;;;;5.70;2.58;;;;;;;;;;10415637;28;20076;-47
2023/09/05 14:24:18;;;;;;;5.78;2.75;;;;;;;;;;10404829;28;20021;-53
2023/09/05 14:29:18;;;;;;;3.72;2.28;;;;;;;;;;10403782;28;20033;-49
2023/09/05 14:34:19;;;;;;;5.03;2.05;;;;;;;;;;10404669;28;20096;-49
2023/09/05 14:39:20;;;;;;;7.78;2.80;;;;;;;;;;10405399;28;20033;-49
2023/09/05 14:44:21;;;;;;;5.95;2.20;;;;;;;;;;10402575;28;20041;-48
2023/09/05 14:49:21;;;;;;;6.20;2.67;;;;;;;;;;10403862;28;20038;-48
2023/09/05 14:54:22;;;;;;;6.22;2.50;;;;;;;;;;10399231;28;20029;-48
2023/09/05 14:59:23;;;;;;;2.63;2.35;;;;;;;;;;10404537;28;20041;-49
2023/09/05 15:04:23;;;;;;;8.57;2.67;;;;;;;;;;10404740;28;20026;-49
2023/09/05 15:09:26;;;;;;;4.47;2.10;;;;;;;;;;10399211;28;20042;-48
2023/09/05 15:14:26;;;;;;;7.88;2.70;;;;;;;;;;10395980;28;20030;-49
2023/09/05 15:19:27;;;;;;;3.45;2.40;;;;;;;;;;10411702;28;20017;-48
2023/09/05 15:24:28;;;;;;;2.63;2.40;;;;;;;;;;10405089;28;20094;-48
2023/09/05 15:29:28;;;;;;;4.05;2.50;;;;;;;;;;10404750;28;20041;-56
2023/09/05 15:34:29;;;;;;;3.50;2.35;;;;;;;;;;10412153;28;20018;-50
2023/09/05 15:39:30;;;;;;;2.25;2.05;;;;;;;;;;10412674;28;20017;-48
2023/09/05 15:44:31;;;;;;;4.07;2.55;;;;;;;;;;10410197;28;20042;-47
2023/09/05 15:49:32;;;;;;;5.97;2.42;;;;;;;;;;10409801;28;20072;-48
2023/09/05 15:54:32;;;;;;;3.70;2.03;;;;;;;;;;10410256;28;20053;-48
2023/09/05 15:59:42;;;;;;;4.45;2.50;;;;;;;;;;10402980;28;20034;-48
2023/09/05 16:04:42;;;;;;;2.83;2.20;;;;;;;;;;10405594;28;20473;-49
2023/09/05 16:09:43;;;;;;;3.25;2.50;;;;;;;;;;10399622;28;20087;-49
2023/09/05 16:14:45;;;;;;;4.60;2.25;;;;;;;;;;10406943;28;20033;-54
2023/09/05 16:19:46;;;;;;;4.00;2.55;;;;;;;;;;10410270;28;20036;-56
2023/09/05 16:24:47;;;;;;;4.57;2.20;;;;;;;;;;10409942;28;20032;-53
2023/09/05 16:29:48;;;;;;;6.20;2.40;;;;;;;;;;10402652;28;20026;-48
2023/09/05 16:34:55;;;;;;;2.80;2.20;;;;;;;;;;10410351;28;20040;-50
2023/09/05 16:39:56;;;;;;;3.20;2.40;;;;;;;;;;10410806;28;20021;-48
2023/09/05 16:44:56;;;;;;;2.85;2.17;;;;;;;;;;10401109;28;20045;-48
2023/09/05 16:49:57;;;;;;;3.20;2.25;;;;;;;;;;10404076;28;20036;-48
2023/09/05 16:54:57;;;;;;;2.85;2.20;;;;;;;;;;10408466;28;20025;-48
2023/09/05 16:59:58;;;;;;;2.65;2.05;;;;;;;;;;10394762;28;20477;-48
2023/09/05 17:04:58;;;;;;;2.80;2.38;;;;;;;;;;10402582;28;20025;-47
2023/09/05 17:09:59;;;;;;;5.88;2.33;;;;;;;;;;10405904;28;20504;-48
2023/09/05 17:15:00;;;;;;;2.53;2.33;;;;;;;;;;10400857;28;20029;-58
2023/09/05 17:20:02;;;;;;;3.30;2.33;;;;;;;;;;10403927;28;20033;-55
2023/09/05 17:25:02;;;;;;;2.95;2.22;;;;;;;;;;10400678;28;20113;-54
2023/09/05 17:30:03;;;;;;;3.72;2.50;;;;;;;;;;10392292;28;20029;-47
2023/09/05 17:35:05;;;;;;;4.03;2.70;;;;;;;;;;10402654;28;20363;-58
2023/09/05 17:40:09;;;;;;;4.40;2.33;;;;;;;;;;10392771;28;20084;-61
2023/09/05 17:45:10;;;;;;;3.40;2.03;;;;;;;;;;10411818;28;20428;-59
2023/09/05 17:50:11;;;;;;;3.03;2.58;;;;;;;;;;10387811;28;20025;-50
2023/09/05 17:55:11;;;;;;;3.75;2.50;;;;;;;;;;10394669;28;20029;-49
2023/09/05 18:00:14;;;;;;;6.82;2.40;;;;;;;;;;10409750;28;20207;-49
2023/09/05 18:05:15;;;;;;;5.32;2.30;;;;;;;;;;10392311;28;20103;-49
2023/09/05 18:10:15;;;;;;;3.90;2.25;;;;;;;;;;10401640;28;20506;-48
2023/09/05 18:15:16;;;;;;;3.95;2.10;;;;;;;;;;10393262;28;20056;-49
2023/09/05 18:20:17;;;;;;;3.58;2.58;;;;;;;;;;10394663;28;22200;-48
2023/09/05 18:25:17;;;;;;;3.30;2.38;;;;;;;;;;10403789;28;20494;-48
2023/09/05 18:30:18;;;;;;;2.83;2.25;;;;;;;;;;10400201;28;20038;-48
2023/09/05 18:35:18;;;;;;;5.95;3.00;;;;;;;;;;10395704;28;20022;-50
2023/09/05 18:40:19;;;;;;;4.35;2.72;;;;;;;;;;10392634;28;20021;-47
2023/09/05 18:45:20;;;;;;;7.13;3.30;;;;;;;;;;10410736;28;21298;-48
2023/09/05 18:50:20;;;;;;;5.10;2.90;;;;;;;;;;10393413;28;20058;-48
2023/09/05 18:55:21;;;;;;;7.10;3.10;;;;;;;;;;10398491;28;20042;-49
2023/09/05 19:00:21;;;;;;;6.10;3.00;;;;;;;;;;10395276;28;20047;-48
2023/09/05 19:05:29;;;;;;;3.42;2.92;;;;;;;;;;10405156;28;20398;-48
2023/09/05 19:10:30;;;;;;;4.90;3.13;;;;;;;;;;10413629;28;20041;-47
2023/09/05 19:15:31;;;;;;;5.32;2.40;;;;;;;;;;10407016;28;20469;-48
2023/09/05 19:20:32;;;;;;;17.83;2.90;;;;;;;;;;10412127;28;20037;-55
2023/09/05 19:25:39;;;;;;;5.82;2.88;;;;;;;;;;10401446;28;20381;-50
2023/09/05 19:30:40;;;;;;;4.87;3.20;;;;;;;;;;10401900;28;20444;-48
2023/09/05 19:35:41;;;;;;;7.55;2.95;;;;;;;;;;10407593;28;20021;-51
2023/09/05 19:40:42;;;;;;;13.65;3.17;;;;;;;;;;10401093;28;20056;-49
2023/09/05 19:45:42;;;;;;;8.82;2.90;;;;;;;;;;10407247;28;20120;-48
2023/09/05 19:50:43;;;;;;;5.68;3.20;;;;;;;;;;10404696;28;20025;-47
2023/09/05 19:55:44;;;;;;;17.50;3.10;;;;;;;;;;10408052;28;20094;-64
2023/09/05 20:00:46;;;;;;;5.63;3.05;;;;;;;;;;10405723;28;20136;-61
2023/09/05 20:05:47;;;;;;;13.35;3.70;;;;;;;;;;10404484;28;20033;-58
2023/09/05 20:10:50;;;;;;;4.05;2.90;;;;;;;;;;10404305;28;20040;-54
2023/09/05 20:15:55;;;;;;;6.10;2.92;;;;;;;;;;10407233;28;20026;-64
2023/09/05 20:20:58;;;;;;;6.45;3.15;;;;;;;;;;10404500;28;20029;-64
2023/09/05 20:25:58;;;;;;;6.18;3.20;;;;;;;;;;10395595;28;20064;-65
2023/09/05 20:30:59;;;;;;;6.65;3.28;;;;;;;;;;10405796;28;20045;-64
2023/09/05 20:36:07;;;;;;;6.63;3.15;;;;;;;;;;10408137;28;20549;-65
2023/09/05 20:41:08;;;;;;;5.43;3.85;;;;;;;;;;10401806;28;20026;-60
2023/09/05 20:46:09;;;;;;;4.70;3.05;;;;;;;;;;10409052;28;20472;-60
2023/09/05 20:51:12;;;;;;;4.65;3.10;;;;;;;;;;10408162;28;20480;-65
2023/09/05 20:56:13;;;;;;;3.95;2.78;;;;;;;;;;10409136;28;20025;-64
2023/09/05 21:01:15;;;;;;;4.18;2.70;;;;;;;;;;10407446;28;20389;-63
2023/09/05 21:06:15;;;;;;;6.32;3.10;;;;;;;;;;10402081;28;20104;-63
2023/09/05 21:11:16;;;;;;;6.47;2.95;;;;;;;;;;10408798;28;20086;-45
2023/09/05 21:16:17;;;;;;;4.43;2.50;;;;;;;;;;10408791;28;20041;-64
2023/09/05 21:21:17;;;;;;;3.65;2.53;;;;;;;;;;10406874;28;20052;-64
2023/09/05 21:26:18;;;;;;;3.22;2.78;;;;;;;;;;10405974;28;20030;-65
2023/09/05 21:31:18;;;;;;;3.90;2.60;;;;;;;;;;10406121;28;20038;-64
2023/09/05 21:36:19;;;;;;;4.97;2.55;;;;;;;;;;10405256;28;20030;-65
2023/09/05 21:41:21;;;;;;;3.33;2.90;;;;;;;;;;10405403;28;20021;-61
2023/09/05 21:46:21;;;;;;;5.90;2.60;;;;;;;;;;10404721;28;20048;-65
2023/09/05 21:51:22;;;;;;;4.60;2.55;;;;;;;;;;10405411;28;20036;-64
2023/09/05 21:56:23;;;;;;;2.92;2.45;;;;;;;;;;10407725;28;20381;-64
2023/09/05 22:01:23;;;;;;;3.17;2.45;;;;;;;;;;10406861;28;20022;-64
2023/09/05 22:06:24;;;;;;;4.53;2.70;;;;;;;;;;10407212;28;20040;-65
2023/09/05 22:11:24;;;;;;;2.53;2.33;;;;;;;;;;10406805;28;20041;-46
2023/09/05 22:16:27;;;;;;;4.72;2.70;;;;;;;;;;10406185;28;20568;-46
2023/09/05 22:21:29;;;;;;;5.22;2.58;;;;;;;;;;10405259;28;20294;-48
2023/09/05 22:26:30;;;;;;;9.20;2.60;;;;;;;;;;10404842;28;20053;-46
2023/09/05 22:31:31;;;;;;;3.42;2.33;;;;;;;;;;10406213;28;20032;-46
2023/09/05 22:36:32;;;;;;;3.50;2.40;;;;;;;;;;10404612;28;20024;-45
2023/09/05 22:41:33;;;;;;;4.60;2.70;;;;;;;;;;10405311;28;20381;-45
2023/09/05 22:46:33;;;;;;;4.90;2.75;;;;;;;;;;10409952;28;20052;-46
2023/09/05 22:51:36;;;;;;;5.25;2.80;;;;;;;;;;10412191;28;20029;-47
2023/09/05 22:56:37;;;;;;;2.90;2.17;;;;;;;;;;10402360;28;20040;-46
2023/09/05 23:01:38;;;;;;;3.30;2.30;;;;;;;;;;10405054;28;20025;-47
2023/09/05 23:06:39;;;;;;;4.00;2.50;;;;;;;;;;10406156;28;20025;-48
2023/09/05 23:11:40;;;;;;;4.13;2.40;;;;;;;;;;10401838;28;20033;-47
2023/09/05 23:16:40;;;;;;;5.60;2.10;;;;;;;;;;10403638;28;20026;-47
2023/09/05 23:21:43;;;;;;;8.32;2.53;;;;;;;;;;10399250;28;20484;-47
2023/09/05 23:26:44;;;;;;;5.47;2.55;;;;;;;;;;10401506;28;20078;-47
2023/09/05 23:31:45;;;;;;;3.55;2.45;;;;;;;;;;10403238;28;20500;-46
2023/09/05 23:36:46;;;;;;;4.30;2.53;;;;;;;;;;10404400;28;20022;-46
2023/09/05 23:41:46;;;;;;;4.68;2.47;;;;;;;;;;10403396;28;20535;-47
2023/09/05 23:46:47;;;;;;;4.35;2.63;;;;;;;;;;10405788;28;20111;-47
2023/09/05 23:51:47;;;;;;;5.70;2.90;;;;;;;;;;10399920;28;20117;-48
2023/09/05 23:56:51;;;;;;;3.88;2.58;;;;;;;;;;10411847;28;20396;-46
